sensor_id;sensor_type;location;lat;lon;timestamp;P1;durP1;ratioP1;P2;durP2;ratioP2
14665;SDS011;7420;53.574;10.040;2023-11-19T00:02:06;7.18;;;6.88;;
14665;SDS011;7420;53.574;10.040;2023-11-19T00:04:33;7.10;;;6.80;;
14665;SDS011;7420;53.574;10.040;2023-11-19T00:07:01;7.10;;;6.80;;
14665;SDS011;7420;53.574;10.040;2023-11-19T00:09:29;7.45;;;7.15;;
14665;SDS011;7420;53.574;10.040;2023-11-19T00:11:54;6.90;;;6.70;;
14665;SDS011;7420;53.574;10.040;2023-11-19T00:14:20;7.30;;;7.00;;
14665;SDS011;7420;53.574;10.040;2023-11-19T00:16:46;7.22;;;6.93;;
14665;SDS011;7420;53.574;10.040;2023-11-19T00:19:11;7.18;;;6.88;;
14665;SDS011;7420;53.574;10.040;2023-11-19T00:21:36;7.20;;;6.90;;
14665;SDS011;7420;53.574;10.040;2023-11-19T00:24:02;7.65;;;7.35;;
14665;SDS011;7420;53.574;10.040;2023-11-19T00:26:29;7.78;;;7.47;;
14665;SDS011;7420;53.574;10.040;2023-11-19T00:28:56;7.20;;;6.90;;
14665;SDS011;7420;53.574;10.040;2023-11-19T00:31:22;7.03;;;6.80;;
14665;SDS011;7420;53.574;10.040;2023-11-19T00:33:47;7.32;;;7.03;;
14665;SDS011;7420;53.574;10.040;2023-11-19T00:36:13;7.43;;;7.13;;
14665;SDS011;7420;53.574;10.040;2023-11-19T00:38:38;7.50;;;7.20;;
14665;SDS011;7420;53.574;10.040;2023-11-19T00:41:03;6.97;;;6.78;;
14665;SDS011;7420;53.574;10.040;2023-11-19T00:43:29;7.32;;;7.03;;
14665;SDS011;7420;53.574;10.040;2023-11-19T00:45:54;7.38;;;7.07;;
14665;SDS011;7420;53.574;10.040;2023-11-19T00:48:19;7.38;;;7.07;;
14665;SDS011;7420;53.574;10.040;2023-11-19T00:50:45;7.03;;;6.80;;
14665;SDS011;7420;53.574;10.040;2023-11-19T00:53:11;7.05;;;6.78;;
14665;SDS011;7420;53.574;10.040;2023-11-19T00:55:36;7.20;;;6.90;;
14665;SDS011;7420;53.574;10.040;2023-11-19T00:58:02;7.32;;;7.03;;
14665;SDS011;7420;53.574;10.040;2023-11-19T01:00:28;7.53;;;7.22;;
14665;SDS011;7420;53.574;10.040;2023-11-19T01:02:53;7.57;;;7.28;;
14665;SDS011;7420;53.574;10.040;2023-11-19T01:05:19;7.50;;;7.20;;
14665;SDS011;7420;53.574;10.040;2023-11-19T01:07:48;7.35;;;7.05;;
14665;SDS011;7420;53.574;10.040;2023-11-19T01:10:15;7.25;;;6.95;;
14665;SDS011;7420;53.574;10.040;2023-11-19T01:12:43;6.78;;;6.57;;
14665;SDS011;7420;53.574;10.040;2023-11-19T01:15:09;7.25;;;6.95;;
14665;SDS011;7420;53.574;10.040;2023-11-19T01:17:36;6.70;;;6.50;;
14665;SDS011;7420;53.574;10.040;2023-11-19T01:20:02;6.70;;;6.50;;
14665;SDS011;7420;53.574;10.040;2023-11-19T01:22:28;7.32;;;7.03;;
14665;SDS011;7420;53.574;10.040;2023-11-19T01:24:53;6.80;;;6.60;;
14665;SDS011;7420;53.574;10.040;2023-11-19T01:27:19;7.10;;;6.80;;
14665;SDS011;7420;53.574;10.040;2023-11-19T01:29:44;7.25;;;6.95;;
14665;SDS011;7420;53.574;10.040;2023-11-19T01:32:10;7.30;;;7.00;;
14665;SDS011;7420;53.574;10.040;2023-11-19T01:34:37;7.10;;;6.82;;
14665;SDS011;7420;53.574;10.040;2023-11-19T01:37:03;7.75;;;7.45;;
14665;SDS011;7420;53.574;10.040;2023-11-19T01:39:28;7.65;;;7.35;;
14665;SDS011;7420;53.574;10.040;2023-11-19T01:41:53;7.60;;;7.30;;
14665;SDS011;7420;53.574;10.040;2023-11-19T01:44:19;7.20;;;6.90;;
14665;SDS011;7420;53.574;10.040;2023-11-19T01:46:45;7.20;;;6.90;;
14665;SDS011;7420;53.574;10.040;2023-11-19T01:49:15;7.45;;;7.15;;
14665;SDS011;7420;53.574;10.040;2023-11-19T01:51:42;7.10;;;6.80;;
14665;SDS011;7420;53.574;10.040;2023-11-19T01:54:08;7.43;;;7.13;;
14665;SDS011;7420;53.574;10.040;2023-11-19T01:56:34;7.40;;;7.10;;
14665;SDS011;7420;53.574;10.040;2023-11-19T01:59:00;7.20;;;6.90;;
14665;SDS011;7420;53.574;10.040;2023-11-19T02:01:27;7.40;;;7.10;;
14665;SDS011;7420;53.574;10.040;2023-11-19T02:03:52;7.20;;;6.90;;
14665;SDS011;7420;53.574;10.040;2023-11-19T02:06:18;7.65;;;7.35;;
14665;SDS011;7420;53.574;10.040;2023-11-19T02:08:43;7.28;;;6.97;;
14665;SDS011;7420;53.574;10.040;2023-11-19T02:11:09;7.20;;;6.90;;
14665;SDS011;7420;53.574;10.040;2023-11-19T02:13:34;7.07;;;6.85;;
14665;SDS011;7420;53.574;10.040;2023-11-19T02:16:02;7.00;;;6.80;;
14665;SDS011;7420;53.574;10.040;2023-11-19T02:18:29;7.03;;;6.80;;
14665;SDS011;7420;53.574;10.040;2023-11-19T02:20:55;7.40;;;7.10;;
14665;SDS011;7420;53.574;10.040;2023-11-19T02:23:27;7.32;;;7.03;;
14665;SDS011;7420;53.574;10.040;2023-11-19T02:28:26;7.20;;;6.90;;
14665;SDS011;7420;53.574;10.040;2023-11-19T02:30:52;7.20;;;6.90;;
14665;SDS011;7420;53.574;10.040;2023-11-19T02:33:18;7.18;;;6.88;;
14665;SDS011;7420;53.574;10.040;2023-11-19T02:35:43;7.43;;;7.13;;
14665;SDS011;7420;53.574;10.040;2023-11-19T02:38:09;7.45;;;7.15;;
14665;SDS011;7420;53.574;10.040;2023-11-19T02:40:34;7.00;;;6.80;;
14665;SDS011;7420;53.574;10.040;2023-11-19T02:43:00;7.28;;;6.97;;
14665;SDS011;7420;53.574;10.040;2023-11-19T02:45:26;7.25;;;6.95;;
14665;SDS011;7420;53.574;10.040;2023-11-19T02:47:52;6.60;;;6.40;;
14665;SDS011;7420;53.574;10.040;2023-11-19T02:50:18;7.18;;;6.88;;
14665;SDS011;7420;53.574;10.040;2023-11-19T02:52:50;6.80;;;6.60;;
14665;SDS011;7420;53.574;10.040;2023-11-19T02:55:16;6.80;;;6.60;;
14665;SDS011;7420;53.574;10.040;2023-11-19T02:57:43;7.20;;;6.90;;
14665;SDS011;7420;53.574;10.040;2023-11-19T03:00:16;7.72;;;7.43;;
14665;SDS011;7420;53.574;10.040;2023-11-19T03:02:43;6.90;;;6.70;;
14665;SDS011;7420;53.574;10.040;2023-11-19T03:05:12;6.88;;;6.68;;
14665;SDS011;7420;53.574;10.040;2023-11-19T03:07:40;6.75;;;6.55;;
14665;SDS011;7420;53.574;10.040;2023-11-19T03:10:09;6.70;;;6.50;;
14665;SDS011;7420;53.574;10.040;2023-11-19T03:12:37;6.80;;;6.60;;
14665;SDS011;7420;53.574;10.040;2023-11-19T03:15:03;6.60;;;6.40;;
14665;SDS011;7420;53.574;10.040;2023-11-19T03:17:28;6.88;;;6.68;;
14665;SDS011;7420;53.574;10.040;2023-11-19T03:19:54;6.72;;;6.53;;
14665;SDS011;7420;53.574;10.040;2023-11-19T03:22:19;7.10;;;6.80;;
14665;SDS011;7420;53.574;10.040;2023-11-19T03:24:46;7.13;;;6.88;;
14665;SDS011;7420;53.574;10.040;2023-11-19T03:27:11;7.35;;;7.05;;
14665;SDS011;7420;53.574;10.040;2023-11-19T03:29:36;7.00;;;6.75;;
14665;SDS011;7420;53.574;10.040;2023-11-19T03:32:03;7.25;;;6.95;;
14665;SDS011;7420;53.574;10.040;2023-11-19T03:34:29;6.72;;;6.53;;
14665;SDS011;7420;53.574;10.040;2023-11-19T03:36:54;6.60;;;6.40;;
14665;SDS011;7420;53.574;10.040;2023-11-19T03:39:20;6.70;;;6.50;;
14665;SDS011;7420;53.574;10.040;2023-11-19T03:41:49;6.70;;;6.50;;
14665;SDS011;7420;53.574;10.040;2023-11-19T03:44:15;6.60;;;6.40;;
14665;SDS011;7420;53.574;10.040;2023-11-19T03:46:40;6.50;;;6.30;;
14665;SDS011;7420;53.574;10.040;2023-11-19T03:49:06;6.80;;;6.60;;
14665;SDS011;7420;53.574;10.040;2023-11-19T03:51:32;7.20;;;6.90;;
14665;SDS011;7420;53.574;10.040;2023-11-19T03:53:57;7.07;;;6.82;;
14665;SDS011;7420;53.574;10.040;2023-11-19T03:56:23;6.80;;;6.60;;
14665;SDS011;7420;53.574;10.040;2023-11-19T03:58:48;6.93;;;6.72;;
14665;SDS011;7420;53.574;10.040;2023-11-19T04:01:13;7.43;;;7.13;;
14665;SDS011;7420;53.574;10.040;2023-11-19T04:03:39;6.85;;;6.65;;
14665;SDS011;7420;53.574;10.040;2023-11-19T04:06:05;6.60;;;6.40;;
14665;SDS011;7420;53.574;10.040;2023-11-19T04:08:30;6.60;;;6.40;;
14665;SDS011;7420;53.574;10.040;2023-11-19T04:10:56;6.70;;;6.50;;
14665;SDS011;7420;53.574;10.040;2023-11-19T04:13:21;7.28;;;6.97;;
14665;SDS011;7420;53.574;10.040;2023-11-19T04:15:47;6.85;;;6.65;;
14665;SDS011;7420;53.574;10.040;2023-11-19T04:18:13;7.05;;;6.78;;
14665;SDS011;7420;53.574;10.040;2023-11-19T04:20:38;7.13;;;6.82;;
14665;SDS011;7420;53.574;10.040;2023-11-19T04:23:04;7.35;;;7.05;;
14665;SDS011;7420;53.574;10.040;2023-11-19T04:25:29;6.90;;;6.70;;
14665;SDS011;7420;53.574;10.040;2023-11-19T04:27:54;6.90;;;6.70;;
14665;SDS011;7420;53.574;10.040;2023-11-19T04:30:20;7.05;;;6.80;;
14665;SDS011;7420;53.574;10.040;2023-11-19T04:32:45;6.70;;;6.50;;
14665;SDS011;7420;53.574;10.040;2023-11-19T04:35:10;7.05;;;6.78;;
14665;SDS011;7420;53.574;10.040;2023-11-19T04:37:36;6.78;;;6.57;;
14665;SDS011;7420;53.574;10.040;2023-11-19T04:40:02;6.40;;;6.20;;
14665;SDS011;7420;53.574;10.040;2023-11-19T04:42:28;6.72;;;6.53;;
14665;SDS011;7420;53.574;10.040;2023-11-19T04:44:54;6.55;;;6.35;;
14665;SDS011;7420;53.574;10.040;2023-11-19T04:47:20;6.63;;;6.43;;
14665;SDS011;7420;53.574;10.040;2023-11-19T04:49:45;7.10;;;6.85;;
14665;SDS011;7420;53.574;10.040;2023-11-19T04:52:10;6.70;;;6.50;;
14665;SDS011;7420;53.574;10.040;2023-11-19T04:54:46;6.50;;;6.30;;
14665;SDS011;7420;53.574;10.040;2023-11-19T04:57:13;6.63;;;6.43;;
14665;SDS011;7420;53.574;10.040;2023-11-19T04:59:38;6.50;;;6.30;;
14665;SDS011;7420;53.574;10.040;2023-11-19T05:02:04;6.45;;;6.25;;
14665;SDS011;7420;53.574;10.040;2023-11-19T05:04:30;6.40;;;6.20;;
14665;SDS011;7420;53.574;10.040;2023-11-19T05:06:56;6.90;;;6.70;;
14665;SDS011;7420;53.574;10.040;2023-11-19T05:09:21;6.50;;;6.30;;
14665;SDS011;7420;53.574;10.040;2023-11-19T05:11:46;6.90;;;6.70;;
14665;SDS011;7420;53.574;10.040;2023-11-19T05:14:13;6.68;;;6.47;;
14665;SDS011;7420;53.574;10.040;2023-11-19T05:16:39;6.35;;;6.15;;
14665;SDS011;7420;53.574;10.040;2023-11-19T05:19:05;6.30;;;6.10;;
14665;SDS011;7420;53.574;10.040;2023-11-19T05:21:31;6.65;;;6.45;;
14665;SDS011;7420;53.574;10.040;2023-11-19T05:23:56;6.65;;;6.45;;
14665;SDS011;7420;53.574;10.040;2023-11-19T05:26:22;6.68;;;6.47;;
14665;SDS011;7420;53.574;10.040;2023-11-19T05:28:48;6.30;;;6.10;;
14665;SDS011;7420;53.574;10.040;2023-11-19T05:31:15;6.50;;;6.30;;
14665;SDS011;7420;53.574;10.040;2023-11-19T05:33:41;7.10;;;6.85;;
14665;SDS011;7420;53.574;10.040;2023-11-19T05:36:07;6.82;;;6.63;;
14665;SDS011;7420;53.574;10.040;2023-11-19T05:38:33;6.82;;;6.63;;
14665;SDS011;7420;53.574;10.040;2023-11-19T05:41:02;6.93;;;6.70;;
14665;SDS011;7420;53.574;10.040;2023-11-19T05:43:27;6.50;;;6.30;;
14665;SDS011;7420;53.574;10.040;2023-11-19T05:45:53;6.40;;;6.20;;
14665;SDS011;7420;53.574;10.040;2023-11-19T05:48:18;6.30;;;6.10;;
14665;SDS011;7420;53.574;10.040;2023-11-19T05:50:43;6.22;;;6.03;;
14665;SDS011;7420;53.574;10.040;2023-11-19T05:53:09;6.82;;;6.63;;
14665;SDS011;7420;53.574;10.040;2023-11-19T05:55:36;6.35;;;6.15;;
14665;SDS011;7420;53.574;10.040;2023-11-19T05:58:09;6.20;;;6.00;;
14665;SDS011;7420;53.574;10.040;2023-11-19T06:00:37;6.30;;;6.10;;
14665;SDS011;7420;53.574;10.040;2023-11-19T06:03:02;6.30;;;6.10;;
14665;SDS011;7420;53.574;10.040;2023-11-19T06:05:28;6.45;;;6.25;;
14665;SDS011;7420;53.574;10.040;2023-11-19T06:07:53;6.05;;;5.85;;
14665;SDS011;7420;53.574;10.040;2023-11-19T06:10:18;6.30;;;6.10;;
14665;SDS011;7420;53.574;10.040;2023-11-19T06:12:45;6.00;;;5.80;;
14665;SDS011;7420;53.574;10.040;2023-11-19T06:15:11;6.05;;;5.85;;
14665;SDS011;7420;53.574;10.040;2023-11-19T06:17:36;5.85;;;5.65;;
14665;SDS011;7420;53.574;10.040;2023-11-19T06:20:03;5.63;;;5.43;;
14665;SDS011;7420;53.574;10.040;2023-11-19T06:22:49;5.80;;;5.60;;
14665;SDS011;7420;53.574;10.040;2023-11-19T06:25:15;5.50;;;5.30;;
14665;SDS011;7420;53.574;10.040;2023-11-19T06:27:40;5.40;;;5.20;;
14665;SDS011;7420;53.574;10.040;2023-11-19T06:30:06;5.50;;;5.30;;
14665;SDS011;7420;53.574;10.040;2023-11-19T06:32:32;5.40;;;5.20;;
14665;SDS011;7420;53.574;10.040;2023-11-19T06:34:58;5.88;;;5.68;;
14665;SDS011;7420;53.574;10.040;2023-11-19T06:37:23;5.40;;;5.20;;
14665;SDS011;7420;53.574;10.040;2023-11-19T06:39:49;5.45;;;5.25;;
14665;SDS011;7420;53.574;10.040;2023-11-19T06:42:14;5.82;;;5.63;;
14665;SDS011;7420;53.574;10.040;2023-11-19T06:44:39;5.50;;;5.30;;
14665;SDS011;7420;53.574;10.040;2023-11-19T06:47:05;5.50;;;5.30;;
14665;SDS011;7420;53.574;10.040;2023-11-19T06:49:31;5.50;;;5.30;;
14665;SDS011;7420;53.574;10.040;2023-11-19T06:51:56;5.50;;;5.30;;
14665;SDS011;7420;53.574;10.040;2023-11-19T06:54:22;5.60;;;5.40;;
14665;SDS011;7420;53.574;10.040;2023-11-19T06:56:48;5.68;;;5.47;;
14665;SDS011;7420;53.574;10.040;2023-11-19T06:59:13;5.63;;;5.43;;
14665;SDS011;7420;53.574;10.040;2023-11-19T07:01:39;5.50;;;5.30;;
14665;SDS011;7420;53.574;10.040;2023-11-19T07:04:04;5.50;;;5.30;;
14665;SDS011;7420;53.574;10.040;2023-11-19T07:06:34;5.60;;;5.40;;
14665;SDS011;7420;53.574;10.040;2023-11-19T07:09:00;5.60;;;5.40;;
14665;SDS011;7420;53.574;10.040;2023-11-19T07:11:34;5.60;;;5.40;;
14665;SDS011;7420;53.574;10.040;2023-11-19T07:14:06;5.60;;;5.40;;
14665;SDS011;7420;53.574;10.040;2023-11-19T07:16:33;5.40;;;5.20;;
14665;SDS011;7420;53.574;10.040;2023-11-19T07:19:05;5.63;;;5.43;;
14665;SDS011;7420;53.574;10.040;2023-11-19T07:21:51;5.45;;;5.25;;
14665;SDS011;7420;53.574;10.040;2023-11-19T07:24:19;5.60;;;5.40;;
14665;SDS011;7420;53.574;10.040;2023-11-19T07:26:45;5.50;;;5.30;;
14665;SDS011;7420;53.574;10.040;2023-11-19T07:29:15;5.65;;;5.45;;
14665;SDS011;7420;53.574;10.040;2023-11-19T07:31:41;5.88;;;5.68;;
14665;SDS011;7420;53.574;10.040;2023-11-19T07:34:10;5.70;;;5.50;;
14665;SDS011;7420;53.574;10.040;2023-11-19T07:36:36;5.63;;;5.43;;
14665;SDS011;7420;53.574;10.040;2023-11-19T07:39:03;5.50;;;5.30;;
14665;SDS011;7420;53.574;10.040;2023-11-19T07:41:29;5.80;;;5.60;;
14665;SDS011;7420;53.574;10.040;2023-11-19T07:43:55;5.70;;;5.50;;
14665;SDS011;7420;53.574;10.040;2023-11-19T07:46:21;5.50;;;5.30;;
14665;SDS011;7420;53.574;10.040;2023-11-19T07:48:46;5.80;;;5.60;;
14665;SDS011;7420;53.574;10.040;2023-11-19T07:51:12;5.50;;;5.30;;
14665;SDS011;7420;53.574;10.040;2023-11-19T07:53:38;5.88;;;5.68;;
14665;SDS011;7420;53.574;10.040;2023-11-19T07:56:03;5.70;;;5.50;;
14665;SDS011;7420;53.574;10.040;2023-11-19T07:58:29;5.60;;;5.40;;
14665;SDS011;7420;53.574;10.040;2023-11-19T08:00:55;5.90;;;5.70;;
14665;SDS011;7420;53.574;10.040;2023-11-19T08:03:20;5.70;;;5.50;;
14665;SDS011;7420;53.574;10.040;2023-11-19T08:05:48;6.00;;;5.80;;
14665;SDS011;7420;53.574;10.040;2023-11-19T08:08:13;5.75;;;5.55;;
14665;SDS011;7420;53.574;10.040;2023-11-19T08:10:39;5.70;;;5.50;;
14665;SDS011;7420;53.574;10.040;2023-11-19T08:13:05;5.60;;;5.40;;
14665;SDS011;7420;53.574;10.040;2023-11-19T08:15:31;5.90;;;5.70;;
14665;SDS011;7420;53.574;10.040;2023-11-19T08:17:56;5.90;;;5.70;;
14665;SDS011;7420;53.574;10.040;2023-11-19T08:20:22;5.88;;;5.68;;
14665;SDS011;7420;53.574;10.040;2023-11-19T08:22:48;5.80;;;5.60;;
14665;SDS011;7420;53.574;10.040;2023-11-19T08:25:13;5.60;;;5.40;;
14665;SDS011;7420;53.574;10.040;2023-11-19T08:27:39;5.60;;;5.40;;
14665;SDS011;7420;53.574;10.040;2023-11-19T08:30:04;5.80;;;5.60;;
14665;SDS011;7420;53.574;10.040;2023-11-19T08:32:31;5.72;;;5.53;;
14665;SDS011;7420;53.574;10.040;2023-11-19T08:34:57;5.47;;;5.28;;
14665;SDS011;7420;53.574;10.040;2023-11-19T08:37:22;5.40;;;5.20;;
14665;SDS011;7420;53.574;10.040;2023-11-19T08:39:48;6.10;;;5.90;;
14665;SDS011;7420;53.574;10.040;2023-11-19T08:42:14;5.60;;;5.40;;
14665;SDS011;7420;53.574;10.040;2023-11-19T08:44:39;5.50;;;5.30;;
14665;SDS011;7420;53.574;10.040;2023-11-19T08:47:08;5.40;;;5.20;;
14665;SDS011;7420;53.574;10.040;2023-11-19T08:49:34;5.90;;;5.70;;
14665;SDS011;7420;53.574;10.040;2023-11-19T08:51:59;5.47;;;5.28;;
14665;SDS011;7420;53.574;10.040;2023-11-19T08:54:25;5.50;;;5.30;;
14665;SDS011;7420;53.574;10.040;2023-11-19T08:56:50;5.50;;;5.30;;
14665;SDS011;7420;53.574;10.040;2023-11-19T08:59:16;5.60;;;5.40;;
14665;SDS011;7420;53.574;10.040;2023-11-19T09:01:41;5.63;;;5.43;;
14665;SDS011;7420;53.574;10.040;2023-11-19T09:04:06;5.60;;;5.40;;
14665;SDS011;7420;53.574;10.040;2023-11-19T09:06:32;6.13;;;5.93;;
14665;SDS011;7420;53.574;10.040;2023-11-19T09:08:58;5.70;;;5.50;;
14665;SDS011;7420;53.574;10.040;2023-11-19T09:11:27;5.82;;;5.63;;
14665;SDS011;7420;53.574;10.040;2023-11-19T09:13:52;5.70;;;5.50;;
14665;SDS011;7420;53.574;10.040;2023-11-19T09:16:18;6.00;;;5.80;;
14665;SDS011;7420;53.574;10.040;2023-11-19T09:18:43;6.07;;;5.88;;
14665;SDS011;7420;53.574;10.040;2023-11-19T09:21:10;5.75;;;5.55;;
14665;SDS011;7420;53.574;10.040;2023-11-19T09:23:36;5.80;;;5.60;;
14665;SDS011;7420;53.574;10.040;2023-11-19T09:26:04;5.88;;;5.68;;
14665;SDS011;7420;53.574;10.040;2023-11-19T09:28:30;5.60;;;5.40;;
14665;SDS011;7420;53.574;10.040;2023-11-19T09:30:56;5.68;;;5.47;;
14665;SDS011;7420;53.574;10.040;2023-11-19T09:33:21;5.70;;;5.50;;
14665;SDS011;7420;53.574;10.040;2023-11-19T09:35:47;5.90;;;5.70;;
14665;SDS011;7420;53.574;10.040;2023-11-19T09:38:14;5.70;;;5.50;;
14665;SDS011;7420;53.574;10.040;2023-11-19T09:40:40;5.70;;;5.50;;
14665;SDS011;7420;53.574;10.040;2023-11-19T09:43:06;5.53;;;5.32;;
14665;SDS011;7420;53.574;10.040;2023-11-19T09:45:32;5.80;;;5.60;;
14665;SDS011;7420;53.574;10.040;2023-11-19T09:48:18;5.85;;;5.65;;
14665;SDS011;7420;53.574;10.040;2023-11-19T09:50:45;5.60;;;5.40;;
14665;SDS011;7420;53.574;10.040;2023-11-19T09:53:12;5.70;;;5.50;;
14665;SDS011;7420;53.574;10.040;2023-11-19T09:55:37;5.72;;;5.53;;
14665;SDS011;7420;53.574;10.040;2023-11-19T09:58:03;5.80;;;5.60;;
14665;SDS011;7420;53.574;10.040;2023-11-19T10:00:29;5.72;;;5.53;;
14665;SDS011;7420;53.574;10.040;2023-11-19T10:02:55;5.85;;;5.65;;
14665;SDS011;7420;53.574;10.040;2023-11-19T10:05:22;6.00;;;5.80;;
14665;SDS011;7420;53.574;10.040;2023-11-19T10:07:49;5.80;;;5.60;;
14665;SDS011;7420;53.574;10.040;2023-11-19T10:10:15;5.82;;;5.63;;
14665;SDS011;7420;53.574;10.040;2023-11-19T10:12:44;5.40;;;5.20;;
14665;SDS011;7420;53.574;10.040;2023-11-19T10:15:14;5.60;;;5.40;;
14665;SDS011;7420;53.574;10.040;2023-11-19T10:17:44;5.70;;;5.50;;
14665;SDS011;7420;53.574;10.040;2023-11-19T10:20:10;5.70;;;5.50;;
14665;SDS011;7420;53.574;10.040;2023-11-19T10:22:38;5.80;;;5.60;;
14665;SDS011;7420;53.574;10.040;2023-11-19T10:25:04;5.82;;;5.63;;
14665;SDS011;7420;53.574;10.040;2023-11-19T10:27:47;5.70;;;5.50;;
14665;SDS011;7420;53.574;10.040;2023-11-19T10:30:12;5.70;;;5.50;;
14665;SDS011;7420;53.574;10.040;2023-11-19T10:32:38;6.05;;;5.85;;
14665;SDS011;7420;53.574;10.040;2023-11-19T10:35:06;5.70;;;5.50;;
14665;SDS011;7420;53.574;10.040;2023-11-19T10:37:32;5.90;;;5.70;;
14665;SDS011;7420;53.574;10.040;2023-11-19T10:40:00;6.00;;;5.80;;
14665;SDS011;7420;53.574;10.040;2023-11-19T10:42:25;5.90;;;5.70;;
14665;SDS011;7420;53.574;10.040;2023-11-19T10:44:51;5.65;;;5.45;;
14665;SDS011;7420;53.574;10.040;2023-11-19T10:47:18;5.60;;;5.40;;
14665;SDS011;7420;53.574;10.040;2023-11-19T10:49:44;5.75;;;5.55;;
14665;SDS011;7420;53.574;10.040;2023-11-19T10:52:15;5.63;;;5.43;;
14665;SDS011;7420;53.574;10.040;2023-11-19T10:54:44;5.80;;;5.60;;
14665;SDS011;7420;53.574;10.040;2023-11-19T10:57:11;5.60;;;5.40;;
14665;SDS011;7420;53.574;10.040;2023-11-19T10:59:39;5.80;;;5.60;;
14665;SDS011;7420;53.574;10.040;2023-11-19T11:02:07;5.60;;;5.40;;
14665;SDS011;7420;53.574;10.040;2023-11-19T11:04:39;5.60;;;5.40;;
14665;SDS011;7420;53.574;10.040;2023-11-19T11:07:07;5.88;;;5.68;;
14665;SDS011;7420;53.574;10.040;2023-11-19T11:09:33;5.70;;;5.50;;
14665;SDS011;7420;53.574;10.040;2023-11-19T11:12:00;5.88;;;5.68;;
14665;SDS011;7420;53.574;10.040;2023-11-19T11:14:26;5.70;;;5.50;;
14665;SDS011;7420;53.574;10.040;2023-11-19T11:16:53;5.60;;;5.40;;
14665;SDS011;7420;53.574;10.040;2023-11-19T11:19:18;5.85;;;5.65;;
14665;SDS011;7420;53.574;10.040;2023-11-19T11:21:45;5.40;;;5.20;;
14665;SDS011;7420;53.574;10.040;2023-11-19T11:24:34;5.60;;;5.40;;
14665;SDS011;7420;53.574;10.040;2023-11-19T11:30:10;5.60;;;5.40;;
14665;SDS011;7420;53.574;10.040;2023-11-19T11:36:01;5.50;;;5.30;;
14665;SDS011;7420;53.574;10.040;2023-11-19T11:38:39;5.60;;;5.40;;
14665;SDS011;7420;53.574;10.040;2023-11-19T11:41:19;6.00;;;5.80;;
14665;SDS011;7420;53.574;10.040;2023-11-19T11:43:49;6.07;;;5.88;;
14665;SDS011;7420;53.574;10.040;2023-11-19T11:49:08;5.50;;;5.30;;
14665;SDS011;7420;53.574;10.040;2023-11-19T12:02:07;5.70;;;5.50;;
14665;SDS011;7420;53.574;10.040;2023-11-19T12:04:34;5.75;;;5.55;;
14665;SDS011;7420;53.574;10.040;2023-11-19T12:09:33;5.80;;;5.60;;
14665;SDS011;7420;53.574;10.040;2023-11-19T12:19:58;5.40;;;5.20;;
14665;SDS011;7420;53.574;10.040;2023-11-19T12:22:25;5.32;;;5.13;;
14665;SDS011;7420;53.574;10.040;2023-11-19T12:24:51;5.40;;;5.20;;
14665;SDS011;7420;53.574;10.040;2023-11-19T12:27:18;5.70;;;5.50;;
14665;SDS011;7420;53.574;10.040;2023-11-19T12:29:47;5.60;;;5.40;;
14665;SDS011;7420;53.574;10.040;2023-11-19T12:32:12;5.40;;;5.20;;
14665;SDS011;7420;53.574;10.040;2023-11-19T12:34:38;5.70;;;5.50;;
14665;SDS011;7420;53.574;10.040;2023-11-19T12:37:04;5.50;;;5.30;;
14665;SDS011;7420;53.574;10.040;2023-11-19T12:39:30;5.60;;;5.40;;
14665;SDS011;7420;53.574;10.040;2023-11-19T12:41:55;6.18;;;5.97;;
14665;SDS011;7420;53.574;10.040;2023-11-19T12:44:22;5.78;;;5.57;;
14665;SDS011;7420;53.574;10.040;2023-11-19T12:46:58;5.60;;;5.40;;
14665;SDS011;7420;53.574;10.040;2023-11-19T12:51:57;5.85;;;5.65;;
14665;SDS011;7420;53.574;10.040;2023-11-19T12:54:35;5.30;;;5.10;;
14665;SDS011;7420;53.574;10.040;2023-11-19T12:57:01;5.50;;;5.30;;
14665;SDS011;7420;53.574;10.040;2023-11-19T12:59:27;5.50;;;5.30;;
14665;SDS011;7420;53.574;10.040;2023-11-19T13:01:58;5.50;;;5.30;;
14665;SDS011;7420;53.574;10.040;2023-11-19T13:04:28;5.70;;;5.50;;
14665;SDS011;7420;53.574;10.040;2023-11-19T13:06:56;5.50;;;5.30;;
14665;SDS011;7420;53.574;10.040;2023-11-19T13:11:48;5.40;;;5.20;;
14665;SDS011;7420;53.574;10.040;2023-11-19T13:14:13;5.53;;;5.32;;
14665;SDS011;7420;53.574;10.040;2023-11-19T13:16:39;5.75;;;5.55;;
14665;SDS011;7420;53.574;10.040;2023-11-19T13:19:04;5.85;;;5.65;;
14665;SDS011;7420;53.574;10.040;2023-11-19T13:21:30;5.70;;;5.50;;
14665;SDS011;7420;53.574;10.040;2023-11-19T13:23:56;5.70;;;5.50;;
14665;SDS011;7420;53.574;10.040;2023-11-19T13:26:21;5.60;;;5.40;;
14665;SDS011;7420;53.574;10.040;2023-11-19T13:28:47;5.57;;;5.38;;
14665;SDS011;7420;53.574;10.040;2023-11-19T13:31:12;5.75;;;5.55;;
14665;SDS011;7420;53.574;10.040;2023-11-19T13:33:38;5.50;;;5.30;;
14665;SDS011;7420;53.574;10.040;2023-11-19T13:36:03;5.60;;;5.40;;
14665;SDS011;7420;53.574;10.040;2023-11-19T13:38:33;5.40;;;5.20;;
14665;SDS011;7420;53.574;10.040;2023-11-19T13:41:00;6.25;;;6.05;;
14665;SDS011;7420;53.574;10.040;2023-11-19T13:43:26;6.13;;;5.93;;
14665;SDS011;7420;53.574;10.040;2023-11-19T13:45:53;5.60;;;5.40;;
14665;SDS011;7420;53.574;10.040;2023-11-19T13:48:19;5.45;;;5.25;;
14665;SDS011;7420;53.574;10.040;2023-11-19T13:50:45;5.70;;;5.50;;
14665;SDS011;7420;53.574;10.040;2023-11-19T13:53:10;5.68;;;5.47;;
14665;SDS011;7420;53.574;10.040;2023-11-19T13:55:35;5.60;;;5.40;;
14665;SDS011;7420;53.574;10.040;2023-11-19T13:58:01;5.88;;;5.68;;
14665;SDS011;7420;53.574;10.040;2023-11-19T14:00:26;5.70;;;5.50;;
14665;SDS011;7420;53.574;10.040;2023-11-19T14:02:52;5.40;;;5.20;;
14665;SDS011;7420;53.574;10.040;2023-11-19T14:05:17;6.05;;;5.85;;
14665;SDS011;7420;53.574;10.040;2023-11-19T14:07:43;6.00;;;5.80;;
14665;SDS011;7420;53.574;10.040;2023-11-19T14:10:09;5.70;;;5.50;;
14665;SDS011;7420;53.574;10.040;2023-11-19T14:12:36;5.80;;;5.60;;
14665;SDS011;7420;53.574;10.040;2023-11-19T14:15:02;5.90;;;5.70;;
14665;SDS011;7420;53.574;10.040;2023-11-19T14:17:30;5.50;;;5.30;;
14665;SDS011;7420;53.574;10.040;2023-11-19T14:19:56;5.50;;;5.30;;
14665;SDS011;7420;53.574;10.040;2023-11-19T14:22:21;6.18;;;5.97;;
14665;SDS011;7420;53.574;10.040;2023-11-19T14:24:47;5.97;;;5.78;;
14665;SDS011;7420;53.574;10.040;2023-11-19T14:27:12;5.80;;;5.60;;
14665;SDS011;7420;53.574;10.040;2023-11-19T14:29:37;6.05;;;5.85;;
14665;SDS011;7420;53.574;10.040;2023-11-19T14:32:04;6.00;;;5.80;;
14665;SDS011;7420;53.574;10.040;2023-11-19T14:34:30;5.40;;;5.20;;
14665;SDS011;7420;53.574;10.040;2023-11-19T14:36:56;5.60;;;5.40;;
14665;SDS011;7420;53.574;10.040;2023-11-19T14:39:21;5.50;;;5.30;;
14665;SDS011;7420;53.574;10.040;2023-11-19T14:41:47;5.43;;;5.22;;
14665;SDS011;7420;53.574;10.040;2023-11-19T14:44:13;5.70;;;5.50;;
14665;SDS011;7420;53.574;10.040;2023-11-19T14:46:38;5.82;;;5.63;;
14665;SDS011;7420;53.574;10.040;2023-11-19T14:49:04;5.80;;;5.60;;
14665;SDS011;7420;53.574;10.040;2023-11-19T14:51:29;5.68;;;5.47;;
14665;SDS011;7420;53.574;10.040;2023-11-19T14:53:55;5.85;;;5.65;;
14665;SDS011;7420;53.574;10.040;2023-11-19T14:56:21;5.95;;;5.75;;
14665;SDS011;7420;53.574;10.040;2023-11-19T14:58:46;6.25;;;6.05;;
14665;SDS011;7420;53.574;10.040;2023-11-19T15:01:12;6.07;;;5.88;;
14665;SDS011;7420;53.574;10.040;2023-11-19T15:03:37;5.53;;;5.32;;
14665;SDS011;7420;53.574;10.040;2023-11-19T15:06:03;5.80;;;5.60;;
14665;SDS011;7420;53.574;10.040;2023-11-19T15:08:28;5.70;;;5.50;;
14665;SDS011;7420;53.574;10.040;2023-11-19T15:10:55;5.75;;;5.55;;
14665;SDS011;7420;53.574;10.040;2023-11-19T15:13:22;6.18;;;5.97;;
14665;SDS011;7420;53.574;10.040;2023-11-19T15:15:48;6.10;;;5.90;;
14665;SDS011;7420;53.574;10.040;2023-11-19T15:18:13;6.28;;;6.07;;
14665;SDS011;7420;53.574;10.040;2023-11-19T15:20:38;6.35;;;6.15;;
14665;SDS011;7420;53.574;10.040;2023-11-19T15:23:04;5.80;;;5.60;;